sensor_id;sensor_type;location;lat;lon;timestamp;temperature;humidity
23618;DHT22;18207;32.078;34.818;2022-12-07T00:00:37;23.30;43.00
23618;DHT22;18207;32.078;34.818;2022-12-07T00:03:07;23.30;43.00
23618;DHT22;18207;32.078;34.818;2022-12-07T00:05:38;23.30;43.00
23618;DHT22;18207;32.078;34.818;2022-12-07T00:08:08;23.20;42.90
23618;DHT22;18207;32.078;34.818;2022-12-07T00:10:40;23.20;42.90
23618;DHT22;18207;32.078;34.818;2022-12-07T00:13:11;23.20;43.00
23618;DHT22;18207;32.078;34.818;2022-12-07T00:15:41;23.20;43.00
23618;DHT22;18207;32.078;34.818;2022-12-07T00:18:12;23.20;43.00
23618;DHT22;18207;32.078;34.818;2022-12-07T00:20:42;23.20;43.10
23618;DHT22;18207;32.078;34.818;2022-12-07T00:23:12;23.20;43.20
23618;DHT22;18207;32.078;34.818;2022-12-07T00:25:45;23.20;43.20
23618;DHT22;18207;32.078;34.818;2022-12-07T00:28:16;23.20;43.20
23618;DHT22;18207;32.078;34.818;2022-12-07T00:30:47;23.20;43.20
23618;DHT22;18207;32.078;34.818;2022-12-07T00:33:18;23.20;43.20
23618;DHT22;18207;32.078;34.818;2022-12-07T00:35:55;23.20;43.20
23618;DHT22;18207;32.078;34.818;2022-12-07T00:38:28;23.20;43.20
23618;DHT22;18207;32.078;34.818;2022-12-07T00:41:04;23.20;43.20
23618;DHT22;18207;32.078;34.818;2022-12-07T00:43:36;23.20;43.20
23618;DHT22;18207;32.078;34.818;2022-12-07T00:46:07;23.20;43.20
23618;DHT22;18207;32.078;34.818;2022-12-07T00:48:38;23.20;43.30
23618;DHT22;18207;32.078;34.818;2022-12-07T00:51:10;23.20;43.40
23618;DHT22;18207;32.078;34.818;2022-12-07T00:53:41;23.20;43.40
23618;DHT22;18207;32.078;34.818;2022-12-07T00:56:17;23.10;43.30
23618;DHT22;18207;32.078;34.818;2022-12-07T00:58:52;23.20;43.40
23618;DHT22;18207;32.078;34.818;2022-12-07T01:01:24;23.10;43.30
23618;DHT22;18207;32.078;34.818;2022-12-07T01:03:57;23.10;43.30
23618;DHT22;18207;32.078;34.818;2022-12-07T01:06:29;23.10;43.30
23618;DHT22;18207;32.078;34.818;2022-12-07T01:09:01;23.10;43.30
23618;DHT22;18207;32.078;34.818;2022-12-07T01:11:34;23.10;43.30
23618;DHT22;18207;32.078;34.818;2022-12-07T01:14:04;23.10;43.40
23618;DHT22;18207;32.078;34.818;2022-12-07T01:16:35;23.10;43.40
23618;DHT22;18207;32.078;34.818;2022-12-07T01:19:05;23.10;43.40
23618;DHT22;18207;32.078;34.818;2022-12-07T01:21:36;23.10;43.50
23618;DHT22;18207;32.078;34.818;2022-12-07T01:24:11;23.10;43.50
23618;DHT22;18207;32.078;34.818;2022-12-07T01:26:43;23.10;43.60
23618;DHT22;18207;32.078;34.818;2022-12-07T01:29:13;23.10;43.60
23618;DHT22;18207;32.078;34.818;2022-12-07T01:31:44;23.10;43.60
23618;DHT22;18207;32.078;34.818;2022-12-07T01:34:14;23.10;43.60
23618;DHT22;18207;32.078;34.818;2022-12-07T01:36:44;23.10;43.60
23618;DHT22;18207;32.078;34.818;2022-12-07T01:39:14;23.10;43.70
23618;DHT22;18207;32.078;34.818;2022-12-07T01:41:47;23.10;43.70
23618;DHT22;18207;32.078;34.818;2022-12-07T01:44:20;23.10;43.70
23618;DHT22;18207;32.078;34.818;2022-12-07T01:46:53;23.10;43.70
23618;DHT22;18207;32.078;34.818;2022-12-07T01:49:32;23.20;43.70
23618;DHT22;18207;32.078;34.818;2022-12-07T01:52:13;23.20;43.80
23618;DHT22;18207;32.078;34.818;2022-12-07T01:54:48;23.20;43.70
23618;DHT22;18207;32.078;34.818;2022-12-07T01:57:23;23.20;43.80
23618;DHT22;18207;32.078;34.818;2022-12-07T01:59:56;23.20;43.80
23618;DHT22;18207;32.078;34.818;2022-12-07T02:02:32;23.20;43.80
23618;DHT22;18207;32.078;34.818;2022-12-07T02:05:06;23.20;43.80
23618;DHT22;18207;32.078;34.818;2022-12-07T02:07:37;23.20;43.80
23618;DHT22;18207;32.078;34.818;2022-12-07T02:10:15;23.20;43.70
23618;DHT22;18207;32.078;34.818;2022-12-07T02:12:53;23.20;43.80
23618;DHT22;18207;32.078;34.818;2022-12-07T02:15:35;23.20;43.70
23618;DHT22;18207;32.078;34.818;2022-12-07T02:18:16;23.20;43.80
23618;DHT22;18207;32.078;34.818;2022-12-07T02:20:57;23.20;43.70
23618;DHT22;18207;32.078;34.818;2022-12-07T02:24:03;23.20;43.70
23618;DHT22;18207;32.078;34.818;2022-12-07T02:27:10;23.20;43.80
23618;DHT22;18207;32.078;34.818;2022-12-07T02:30:00;23.20;43.60
23618;DHT22;18207;32.078;34.818;2022-12-07T02:32:43;23.20;43.60
23618;DHT22;18207;32.078;34.818;2022-12-07T02:35:21;23.20;43.70
23618;DHT22;18207;32.078;34.818;2022-12-07T02:38:02;23.20;43.70
23618;DHT22;18207;32.078;34.818;2022-12-07T02:40:43;23.20;43.80
23618;DHT22;18207;32.078;34.818;2022-12-07T02:43:23;23.20;43.70
23618;DHT22;18207;32.078;34.818;2022-12-07T02:46:01;23.20;43.80
23618;DHT22;18207;32.078;34.818;2022-12-07T02:48:34;23.10;43.70
23618;DHT22;18207;32.078;34.818;2022-12-07T02:51:08;23.10;43.70
23618;DHT22;18207;32.078;34.818;2022-12-07T02:53:41;23.10;43.70
23618;DHT22;18207;32.078;34.818;2022-12-07T02:56:21;23.10;43.70
23618;DHT22;18207;32.078;34.818;2022-12-07T02:59:06;23.10;43.80
23618;DHT22;18207;32.078;34.818;2022-12-07T03:01:58;23.10;43.70
23618;DHT22;18207;32.078;34.818;2022-12-07T03:04:45;23.10;43.70
23618;DHT22;18207;32.078;34.818;2022-12-07T03:07:31;23.10;43.70
23618;DHT22;18207;32.078;34.818;2022-12-07T03:10:14;23.10;43.70
23618;DHT22;18207;32.078;34.818;2022-12-07T03:12:57;23.10;43.80
23618;DHT22;18207;32.078;34.818;2022-12-07T03:15:41;23.10;43.80
23618;DHT22;18207;32.078;34.818;2022-12-07T03:18:21;23.00;43.70
23618;DHT22;18207;32.078;34.818;2022-12-07T03:20:57;23.10;43.80
23618;DHT22;18207;32.078;34.818;2022-12-07T03:23:34;23.00;43.80
23618;DHT22;18207;32.078;34.818;2022-12-07T03:26:09;23.00;43.80
23618;DHT22;18207;32.078;34.818;2022-12-07T03:28:45;23.00;43.80
23618;DHT22;18207;32.078;34.818;2022-12-07T03:31:21;23.00;43.80
23618;DHT22;18207;32.078;34.818;2022-12-07T03:34:01;23.00;43.80
23618;DHT22;18207;32.078;34.818;2022-12-07T03:36:40;23.00;43.90
23618;DHT22;18207;32.078;34.818;2022-12-07T03:39:21;23.00;43.90
23618;DHT22;18207;32.078;34.818;2022-12-07T03:41:56;23.00;43.90
23618;DHT22;18207;32.078;34.818;2022-12-07T03:44:28;23.00;43.80
23618;DHT22;18207;32.078;34.818;2022-12-07T03:47:02;23.00;43.90
23618;DHT22;18207;32.078;34.818;2022-12-07T03:49:44;22.90;43.90
23618;DHT22;18207;32.078;34.818;2022-12-07T03:52:24;22.90;43.90
23618;DHT22;18207;32.078;34.818;2022-12-07T03:55:04;22.90;43.90
23618;DHT22;18207;32.078;34.818;2022-12-07T03:57:40;22.90;43.90
23618;DHT22;18207;32.078;34.818;2022-12-07T04:00:14;22.90;44.00
23618;DHT22;18207;32.078;34.818;2022-12-07T04:02:45;22.90;44.00
23618;DHT22;18207;32.078;34.818;2022-12-07T04:05:17;22.90;44.00
23618;DHT22;18207;32.078;34.818;2022-12-07T04:07:47;22.90;44.10
23618;DHT22;18207;32.078;34.818;2022-12-07T04:10:18;22.90;44.00
23618;DHT22;18207;32.078;34.818;2022-12-07T04:12:49;22.90;44.10
23618;DHT22;18207;32.078;34.818;2022-12-07T04:15:19;22.90;44.10
23618;DHT22;18207;32.078;34.818;2022-12-07T04:17:50;22.90;44.10
23618;DHT22;18207;32.078;34.818;2022-12-07T04:20:21;22.90;44.10
23618;DHT22;18207;32.078;34.818;2022-12-07T04:22:52;22.90;44.10
23618;DHT22;18207;32.078;34.818;2022-12-07T04:25:23;22.90;44.20
23618;DHT22;18207;32.078;34.818;2022-12-07T04:27:54;22.90;44.20
23618;DHT22;18207;32.078;34.818;2022-12-07T04:30:24;23.00;44.20
23618;DHT22;18207;32.078;34.818;2022-12-07T04:32:54;23.00;44.20
23618;DHT22;18207;32.078;34.818;2022-12-07T04:35:27;23.00;44.30
23618;DHT22;18207;32.078;34.818;2022-12-07T04:37:58;23.00;44.20
23618;DHT22;18207;32.078;34.818;2022-12-07T04:40:28;23.00;44.20
23618;DHT22;18207;32.078;34.818;2022-12-07T04:42:59;23.00;44.20
23618;DHT22;18207;32.078;34.818;2022-12-07T04:45:30;23.00;44.30
23618;DHT22;18207;32.078;34.818;2022-12-07T04:48:01;23.00;44.30
23618;DHT22;18207;32.078;34.818;2022-12-07T04:50:33;23.00;44.30
23618;DHT22;18207;32.078;34.818;2022-12-07T04:53:12;23.10;44.40
23618;DHT22;18207;32.078;34.818;2022-12-07T04:55:43;23.10;44.40
23618;DHT22;18207;32.078;34.818;2022-12-07T04:58:13;23.10;44.40
23618;DHT22;18207;32.078;34.818;2022-12-07T05:00:44;23.10;44.20
23618;DHT22;18207;32.078;34.818;2022-12-07T05:03:15;23.10;44.30
23618;DHT22;18207;32.078;34.818;2022-12-07T05:05:46;23.10;44.20
23618;DHT22;18207;32.078;34.818;2022-12-07T05:08:16;23.10;44.20
23618;DHT22;18207;32.078;34.818;2022-12-07T05:10:49;23.10;44.20
23618;DHT22;18207;32.078;34.818;2022-12-07T05:13:19;23.10;44.30
23618;DHT22;18207;32.078;34.818;2022-12-07T05:15:50;23.10;44.30
23618;DHT22;18207;32.078;34.818;2022-12-07T05:18:20;23.10;44.30
23618;DHT22;18207;32.078;34.818;2022-12-07T05:20:52;23.10;44.30
23618;DHT22;18207;32.078;34.818;2022-12-07T05:23:23;23.10;44.30
23618;DHT22;18207;32.078;34.818;2022-12-07T05:25:54;23.10;44.30
23618;DHT22;18207;32.078;34.818;2022-12-07T05:28:24;23.10;44.30
23618;DHT22;18207;32.078;34.818;2022-12-07T05:30:55;23.10;44.30
23618;DHT22;18207;32.078;34.818;2022-12-07T05:33:26;23.10;44.30
23618;DHT22;18207;32.078;34.818;2022-12-07T05:35:58;23.10;44.40
23618;DHT22;18207;32.078;34.818;2022-12-07T05:38:33;23.20;44.50
23618;DHT22;18207;32.078;34.818;2022-12-07T05:41:05;23.20;44.50
23618;DHT22;18207;32.078;34.818;2022-12-07T05:43:56;23.20;44.50
23618;DHT22;18207;32.078;34.818;2022-12-07T05:46:27;23.20;44.40
23618;DHT22;18207;32.078;34.818;2022-12-07T05:48:57;23.20;44.50
23618;DHT22;18207;32.078;34.818;2022-12-07T05:51:30;23.20;44.40
23618;DHT22;18207;32.078;34.818;2022-12-07T05:54:00;23.20;44.50
23618;DHT22;18207;32.078;34.818;2022-12-07T05:56:31;23.20;44.50
23618;DHT22;18207;32.078;34.818;2022-12-07T05:59:01;23.30;44.40
23618;DHT22;18207;32.078;34.818;2022-12-07T06:01:52;23.30;45.10
23618;DHT22;18207;32.078;34.818;2022-12-07T06:04:26;23.30;44.50
23618;DHT22;18207;32.078;34.818;2022-12-07T06:06:59;23.30;44.50
23618;DHT22;18207;32.078;34.818;2022-12-07T06:09:30;23.30;44.50
23618;DHT22;18207;32.078;34.818;2022-12-07T06:12:02;23.30;44.50
23618;DHT22;18207;32.078;34.818;2022-12-07T06:14:51;23.30;44.60
23618;DHT22;18207;32.078;34.818;2022-12-07T06:17:22;23.30;44.60
23618;DHT22;18207;32.078;34.818;2022-12-07T06:19:53;23.40;44.70
23618;DHT22;18207;32.078;34.818;2022-12-07T06:22:25;23.40;44.70
23618;DHT22;18207;32.078;34.818;2022-12-07T06:24:56;23.40;44.70
23618;DHT22;18207;32.078;34.818;2022-12-07T06:27:33;23.40;44.60
23618;DHT22;18207;32.078;34.818;2022-12-07T06:30:05;23.40;44.60
23618;DHT22;18207;32.078;34.818;2022-12-07T06:32:37;23.40;44.70
23618;DHT22;18207;32.078;34.818;2022-12-07T06:35:08;23.40;44.60
23618;DHT22;18207;32.078;34.818;2022-12-07T06:37:40;23.40;44.60
23618;DHT22;18207;32.078;34.818;2022-12-07T06:40:11;23.40;44.70
23618;DHT22;18207;32.078;34.818;2022-12-07T06:42:42;23.50;44.70
23618;DHT22;18207;32.078;34.818;2022-12-07T06:45:13;23.50;44.80
23618;DHT22;18207;32.078;34.818;2022-12-07T06:47:44;23.50;44.80
23618;DHT22;18207;32.078;34.818;2022-12-07T06:50:15;23.50;44.80
23618;DHT22;18207;32.078;34.818;2022-12-07T06:52:47;23.50;44.80
23618;DHT22;18207;32.078;34.818;2022-12-07T06:55:18;23.50;44.80
23618;DHT22;18207;32.078;34.818;2022-12-07T06:57:48;23.50;44.90
23618;DHT22;18207;32.078;34.818;2022-12-07T07:00:20;23.50;44.90
23618;DHT22;18207;32.078;34.818;2022-12-07T07:02:51;23.50;44.80
23618;DHT22;18207;32.078;34.818;2022-12-07T07:05:21;23.60;44.90
23618;DHT22;18207;32.078;34.818;2022-12-07T07:07:54;23.60;45.00
23618;DHT22;18207;32.078;34.818;2022-12-07T07:10:44;23.60;45.00
23618;DHT22;18207;32.078;34.818;2022-12-07T07:13:15;23.70;45.00
23618;DHT22;18207;32.078;34.818;2022-12-07T07:15:46;23.70;45.00
23618;DHT22;18207;32.078;34.818;2022-12-07T07:18:16;23.70;45.00
23618;DHT22;18207;32.078;34.818;2022-12-07T07:20:47;23.70;44.90
23618;DHT22;18207;32.078;34.818;2022-12-07T07:23:19;23.70;44.90
23618;DHT22;18207;32.078;34.818;2022-12-07T07:25:50;23.80;45.00
23618;DHT22;18207;32.078;34.818;2022-12-07T07:28:22;23.80;45.00
23618;DHT22;18207;32.078;34.818;2022-12-07T07:30:52;23.80;45.00
23618;DHT22;18207;32.078;34.818;2022-12-07T07:33:23;23.80;45.00
23618;DHT22;18207;32.078;34.818;2022-12-07T07:35:54;23.80;45.00
23618;DHT22;18207;32.078;34.818;2022-12-07T07:38:25;23.80;45.00
23618;DHT22;18207;32.078;34.818;2022-12-07T07:40:56;23.90;45.10
23618;DHT22;18207;32.078;34.818;2022-12-07T07:43:27;23.90;45.10
23618;DHT22;18207;32.078;34.818;2022-12-07T07:45:57;23.90;45.10
23618;DHT22;18207;32.078;34.818;2022-12-07T07:48:27;23.90;45.10
23618;DHT22;18207;32.078;34.818;2022-12-07T07:50:58;23.90;45.00
23618;DHT22;18207;32.078;34.818;2022-12-07T07:53:31;24.00;45.10
23618;DHT22;18207;32.078;34.818;2022-12-07T07:56:01;24.00;45.10
23618;DHT22;18207;32.078;34.818;2022-12-07T07:58:32;24.10;45.20
23618;DHT22;18207;32.078;34.818;2022-12-07T08:01:06;24.00;45.10
23618;DHT22;18207;32.078;34.818;2022-12-07T08:03:37;24.10;45.20
23618;DHT22;18207;32.078;34.818;2022-12-07T08:06:07;24.10;45.20
23618;DHT22;18207;32.078;34.818;2022-12-07T08:08:40;24.10;45.20
23618;DHT22;18207;32.078;34.818;2022-12-07T08:11:10;24.10;45.10
23618;DHT22;18207;32.078;34.818;2022-12-07T08:13:41;24.20;45.30
23618;DHT22;18207;32.078;34.818;2022-12-07T08:16:11;24.20;45.20
23618;DHT22;18207;32.078;34.818;2022-12-07T08:18:43;24.20;45.30
23618;DHT22;18207;32.078;34.818;2022-12-07T08:21:14;24.30;45.30
23618;DHT22;18207;32.078;34.818;2022-12-07T08:23:47;24.30;45.20
23618;DHT22;18207;32.078;34.818;2022-12-07T08:26:18;24.30;45.20
23618;DHT22;18207;32.078;34.818;2022-12-07T08:28:48;24.30;45.30
23618;DHT22;18207;32.078;34.818;2022-12-07T08:31:18;24.30;45.20
23618;DHT22;18207;32.078;34.818;2022-12-07T08:33:49;24.40;45.20
23618;DHT22;18207;32.078;34.818;2022-12-07T08:36:20;24.40;45.80
23618;DHT22;18207;32.078;34.818;2022-12-07T08:38:53;24.40;45.30
23618;DHT22;18207;32.078;34.818;2022-12-07T08:41:43;24.50;45.40
23618;DHT22;18207;32.078;34.818;2022-12-07T08:44:14;24.50;45.40
23618;DHT22;18207;32.078;34.818;2022-12-07T08:46:46;24.50;45.30
23618;DHT22;18207;32.078;34.818;2022-12-07T08:49:23;24.60;45.40
23618;DHT22;18207;32.078;34.818;2022-12-07T08:51:58;24.60;45.30
23618;DHT22;18207;32.078;34.818;2022-12-07T08:54:31;24.60;45.20
23618;DHT22;18207;32.078;34.818;2022-12-07T08:57:03;24.70;45.30
23618;DHT22;18207;32.078;34.818;2022-12-07T08:59:36;24.70;45.30
23618;DHT22;18207;32.078;34.818;2022-12-07T09:02:07;24.70;45.20
23618;DHT22;18207;32.078;34.818;2022-12-07T09:04:38;24.80;45.30
23618;DHT22;18207;32.078;34.818;2022-12-07T09:07:07;24.70;45.20
23618;DHT22;18207;32.078;34.818;2022-12-07T09:09:41;24.70;45.20
23618;DHT22;18207;32.078;34.818;2022-12-07T09:12:11;24.80;45.20
23618;DHT22;18207;32.078;34.818;2022-12-07T09:14:41;24.80;45.20
23618;DHT22;18207;32.078;34.818;2022-12-07T09:17:13;24.80;45.20
23618;DHT22;18207;32.078;34.818;2022-12-07T09:19:43;24.80;45.30
23618;DHT22;18207;32.078;34.818;2022-12-07T09:22:13;24.80;45.30
23618;DHT22;18207;32.078;34.818;2022-12-07T09:24:46;24.80;45.30
23618;DHT22;18207;32.078;34.818;2022-12-07T09:27:16;24.80;45.40
23618;DHT22;18207;32.078;34.818;2022-12-07T09:29:47;24.80;45.30
23618;DHT22;18207;32.078;34.818;2022-12-07T09:32:17;24.80;45.30
23618;DHT22;18207;32.078;34.818;2022-12-07T09:34:47;24.80;45.30
23618;DHT22;18207;32.078;34.818;2022-12-07T09:37:17;24.90;45.40
23618;DHT22;18207;32.078;34.818;2022-12-07T09:39:50;24.80;45.40
23618;DHT22;18207;32.078;34.818;2022-12-07T09:42:28;24.90;45.50
23618;DHT22;18207;32.078;34.818;2022-12-07T09:45:05;24.90;45.50
23618;DHT22;18207;32.078;34.818;2022-12-07T09:47:42;24.90;45.50
23618;DHT22;18207;32.078;34.818;2022-12-07T09:50:14;25.00;45.60
23618;DHT22;18207;32.078;34.818;2022-12-07T09:52:47;25.00;45.60
23618;DHT22;18207;32.078;34.818;2022-12-07T09:55:23;25.00;45.60
23618;DHT22;18207;32.078;34.818;2022-12-07T09:57:57;25.00;45.60
23618;DHT22;18207;32.078;34.818;2022-12-07T10:00:29;25.10;45.60
23618;DHT22;18207;32.078;34.818;2022-12-07T10:03:00;25.10;45.60
23618;DHT22;18207;32.078;34.818;2022-12-07T10:05:35;25.10;45.60
23618;DHT22;18207;32.078;34.818;2022-12-07T10:08:11;25.10;45.70
23618;DHT22;18207;32.078;34.818;2022-12-07T10:10:50;25.20;45.70
23618;DHT22;18207;32.078;34.818;2022-12-07T10:13:22;25.20;45.50
23618;DHT22;18207;32.078;34.818;2022-12-07T10:16:05;25.30;45.50
23618;DHT22;18207;32.078;34.818;2022-12-07T10:18:48;25.30;45.30
23618;DHT22;18207;32.078;34.818;2022-12-07T10:21:20;25.40;45.20
23618;DHT22;18207;32.078;34.818;2022-12-07T10:24:03;25.40;45.20
23618;DHT22;18207;32.078;34.818;2022-12-07T10:26:40;25.40;45.20
23618;DHT22;18207;32.078;34.818;2022-12-07T10:29:22;25.40;45.10
23618;DHT22;18207;32.078;34.818;2022-12-07T10:31:57;25.40;45.10
23618;DHT22;18207;32.078;34.818;2022-12-07T10:34:30;25.50;44.90
23618;DHT22;18207;32.078;34.818;2022-12-07T10:37:18;25.50;44.90
23618;DHT22;18207;32.078;34.818;2022-12-07T10:39:54;25.50;44.80
23618;DHT22;18207;32.078;34.818;2022-12-07T10:42:28;25.50;44.80
23618;DHT22;18207;32.078;34.818;2022-12-07T10:45:08;25.50;44.80
23618;DHT22;18207;32.078;34.818;2022-12-07T10:47:45;25.50;44.80
23618;DHT22;18207;32.078;34.818;2022-12-07T10:50:44;25.50;44.80
23618;DHT22;18207;32.078;34.818;2022-12-07T10:56:55;25.60;44.80
23618;DHT22;18207;32.078;34.818;2022-12-07T11:05:53;25.70;44.80
23618;DHT22;18207;32.078;34.818;2022-12-07T11:08:43;25.70;44.70
23618;DHT22;18207;32.078;34.818;2022-12-07T11:11:33;25.70;44.70
23618;DHT22;18207;32.078;34.818;2022-12-07T11:14:16;25.80;44.70
23618;DHT22;18207;32.078;34.818;2022-12-07T11:17:01;25.80;44.70
23618;DHT22;18207;32.078;34.818;2022-12-07T11:19:50;25.80;44.60
23618;DHT22;18207;32.078;34.818;2022-12-07T11:22:36;25.80;44.60
23618;DHT22;18207;32.078;34.818;2022-12-07T11:25:25;25.80;44.60
23618;DHT22;18207;32.078;34.818;2022-12-07T11:28:17;25.80;44.60
23618;DHT22;18207;32.078;34.818;2022-12-07T11:31:02;25.80;44.60
23618;DHT22;18207;32.078;34.818;2022-12-07T11:33:45;25.80;44.40
23618;DHT22;18207;32.078;34.818;2022-12-07T11:36:32;25.80;44.50
23618;DHT22;18207;32.078;34.818;2022-12-07T11:39:23;25.80;44.50
23618;DHT22;18207;32.078;34.818;2022-12-07T11:42:04;25.80;44.50
23618;DHT22;18207;32.078;34.818;2022-12-07T11:44:46;25.80;44.50
23618;DHT22;18207;32.078;34.818;2022-12-07T11:47:27;25.80;44.50
23618;DHT22;18207;32.078;34.818;2022-12-07T11:50:21;25.80;44.50
23618;DHT22;18207;32.078;34.818;2022-12-07T11:52:58;25.80;44.40
23618;DHT22;18207;32.078;34.818;2022-12-07T11:55:41;25.80;44.30
23618;DHT22;18207;32.078;34.818;2022-12-07T11:58:22;25.80;44.40
23618;DHT22;18207;32.078;34.818;2022-12-07T12:01:21;25.80;44.40
23618;DHT22;18207;32.078;34.818;2022-12-07T12:04:02;25.80;44.60
23618;DHT22;18207;32.078;34.818;2022-12-07T12:06:44;25.80;44.50
23618;DHT22;18207;32.078;34.818;2022-12-07T12:09:18;25.80;44.50
23618;DHT22;18207;32.078;34.818;2022-12-07T12:12:20;25.80;44.50
23618;DHT22;18207;32.078;34.818;2022-12-07T12:15:38;25.80;44.50
23618;DHT22;18207;32.078;34.818;2022-12-07T12:18:37;25.80;44.50
23618;DHT22;18207;32.078;34.818;2022-12-07T12:21:19;25.80;44.60
23618;DHT22;18207;32.078;34.818;2022-12-07T12:23:59;25.80;44.60
23618;DHT22;18207;32.078;34.818;2022-12-07T12:26:33;25.80;44.60
23618;DHT22;18207;32.078;34.818;2022-12-07T12:29:11;25.80;44.60
23618;DHT22;18207;32.078;34.818;2022-12-07T12:32:06;25.80;44.60
23618;DHT22;18207;32.078;34.818;2022-12-07T12:35:00;25.90;44.60
23618;DHT22;18207;32.078;34.818;2022-12-07T12:37:52;25.90;44.60
23618;DHT22;18207;32.078;34.818;2022-12-07T12:43:47;25.90;44.70
23618;DHT22;18207;32.078;34.818;2022-12-07T12:46:46;25.90;44.60
23618;DHT22;18207;32.078;34.818;2022-12-07T12:49:43;25.90;45.10
23618;DHT22;18207;32.078;34.818;2022-12-07T12:52:52;25.90;44.60
23618;DHT22;18207;32.078;34.818;2022-12-07T12:59:22;25.90;44.50
23618;DHT22;18207;32.078;34.818;2022-12-07T13:01:56;25.90;44.50
23618;DHT22;18207;32.078;34.818;2022-12-07T13:04:52;25.90;44.50
23618;DHT22;18207;32.078;34.818;2022-12-07T13:07:55;25.90;44.60
23618;DHT22;18207;32.078;34.818;2022-12-07T13:10:45;25.90;44.60
23618;DHT22;18207;32.078;34.818;2022-12-07T13:13:33;25.90;44.60
23618;DHT22;18207;32.078;34.818;2022-12-07T13:22:48;25.90;44.50
23618;DHT22;18207;32.078;34.818;2022-12-07T13:25:51;25.90;44.40
23618;DHT22;18207;32.078;34.818;2022-12-07T13:28:34;25.90;44.50
23618;DHT22;18207;32.078;34.818;2022-12-07T13:31:23;25.90;44.50
23618;DHT22;18207;32.078;34.818;2022-12-07T13:34:03;25.90;44.50
23618;DHT22;18207;32.078;34.818;2022-12-07T13:36:38;25.90;44.50
23618;DHT22;18207;32.078;34.818;2022-12-07T13:39:19;25.90;44.50
23618;DHT22;18207;32.078;34.818;2022-12-07T13:41:53;25.90;44.50
23618;DHT22;18207;32.078;34.818;2022-12-07T13:44:27;25.90;44.50
23618;DHT22;18207;32.078;34.818;2022-12-07T13:47:16;25.90;44.50
23618;DHT22;18207;32.078;34.818;2022-12-07T13:49:52;25.80;44.40
23618;DHT22;18207;32.078;34.818;2022-12-07T13:52:24;25.80;44.40
23618;DHT22;18207;32.078;34.818;2022-12-07T13:54:58;25.80;44.40
23618;DHT22;18207;32.078;34.818;2022-12-07T13:57:32;25.80;44.40
23618;DHT22;18207;32.078;34.818;2022-12-07T14:00:15;25.80;44.40
23618;DHT22;18207;32.078;34.818;2022-12-07T14:02:55;25.70;44.30
23618;DHT22;18207;32.078;34.818;2022-12-07T14:05:29;25.80;44.40
23618;DHT22;18207;32.078;34.818;2022-12-07T14:08:02;25.80;44.40
23618;DHT22;18207;32.078;34.818;2022-12-07T14:10:37;25.70;44.50
23618;DHT22;18207;32.078;34.818;2022-12-07T14:13:27;25.70;44.50
23618;DHT22;18207;32.078;34.818;2022-12-07T14:16:05;25.70;44.50
23618;DHT22;18207;32.078;34.818;2022-12-07T14:18:51;25.70;44.50
23618;DHT22;18207;32.078;34.818;2022-12-07T14:21:23;25.60;44.40
23618;DHT22;18207;32.078;34.818;2022-12-07T14:24:11;25.60;44.40
23618;DHT22;18207;32.078;34.818;2022-12-07T14:26:47;25.60;44.40
23618;DHT22;18207;32.078;34.818;2022-12-07T14:29:37;25.60;44.50
23618;DHT22;18207;32.078;34.818;2022-12-07T14:32:24;25.60;45.20
23618;DHT22;18207;32.078;34.818;2022-12-07T14:34:59;25.60;45.20
23618;DHT22;18207;32.078;34.818;2022-12-07T14:37:31;25.60;44.60
23618;DHT22;18207;32.078;34.818;2022-12-07T14:40:02;25.60;44.60
23618;DHT22;18207;32.078;34.818;2022-12-07T14:42:34;25.60;44.60
23618;DHT22;18207;32.078;34.818;2022-12-07T14:45:10;25.60;44.60
23618;DHT22;18207;32.078;34.818;2022-12-07T14:47:46;25.50;44.60
23618;DHT22;18207;32.078;34.818;2022-12-07T14:50:38;25.50;44.90
23618;DHT22;18207;32.078;34.818;2022-12-07T14:53:35;25.60;44.60
23618;DHT22;18207;32.078;34.818;2022-12-07T14:56:08;25.50;44.60
23618;DHT22;18207;32.078;34.818;2022-12-07T14:58:39;25.50;44.60
23618;DHT22;18207;32.078;34.818;2022-12-07T15:01:10;25.50;44.60
23618;DHT22;18207;32.078;34.818;2022-12-07T15:03:42;25.50;44.60
23618;DHT22;18207;32.078;34.818;2022-12-07T15:06:18;25.50;44.60
23618;DHT22;18207;32.078;34.818;2022-12-07T15:08:48;25.50;44.70
23618;DHT22;18207;32.078;34.818;2022-12-07T15:11:19;25.50;44.70
23618;DHT22;18207;32.078;34.818;2022-12-07T15:13:49;25.40;44.60
23618;DHT22;18207;32.078;34.818;2022-12-07T15:16:40;25.40;44.60
23618;DHT22;18207;32.078;34.818;2022-12-07T15:19:35;25.40;44.60
23618;DHT22;18207;32.078;34.818;2022-12-07T15:22:05;25.40;44.60
23618;DHT22;18207;32.078;34.818;2022-12-07T15:24:38;25.50;44.70
23618;DHT22;18207;32.078;34.818;2022-12-07T15:27:09;25.40;44.60
23618;DHT22;18207;32.078;34.818;2022-12-07T15:29:40;25.40;44.60
23618;DHT22;18207;32.078;34.818;2022-12-07T15:32:10;25.40;44.70
23618;DHT22;18207;32.078;34.818;2022-12-07T15:34:43;25.40;44.70
23618;DHT22;18207;32.078;34.818;2022-12-07T15:37:13;25.40;44.60
23618;DHT22;18207;32.078;34.818;2022-12-07T15:39:44;25.40;44.60
23618;DHT22;18207;32.078;34.818;2022-12-07T15:42:14;25.40;44.60
23618;DHT22;18207;32.078;34.818;2022-12-07T15:44:45;25.40;44.60
23618;DHT22;18207;32.078;34.818;2022-12-07T15:47:34;25.40;44.60
23618;DHT22;18207;32.078;34.818;2022-12-07T15:50:28;25.40;44.60
23618;DHT22;18207;32.078;34.818;2022-12-07T15:52:58;25.40;44.60
23618;DHT22;18207;32.078;34.818;2022-12-07T15:55:28;25.40;44.60
23618;DHT22;18207;32.078;34.818;2022-12-07T15:57:59;25.40;44.70
23618;DHT22;18207;32.078;34.818;2022-12-07T16:00:30;25.30;44.60
23618;DHT22;18207;32.078;34.818;2022-12-07T16:03:10;25.30;44.60
23618;DHT22;18207;32.078;34.818;2022-12-07T16:05:42;25.30;44.60
23618;DHT22;18207;32.078;34.818;2022-12-07T16:08:18;25.30;44.70
23618;DHT22;18207;32.078;34.818;2022-12-07T16:10:49;25.30;44.60
23618;DHT22;18207;32.078;34.818;2022-12-07T16:13:19;25.30;44.60
23618;DHT22;18207;32.078;34.818;2022-12-07T16:15:49;25.30;44.70
23618;DHT22;18207;32.078;34.818;2022-12-07T16:18:20;25.30;44.70
23618;DHT22;18207;32.078;34.818;2022-12-07T16:20:53;25.30;44.70
23618;DHT22;18207;32.078;34.818;2022-12-07T16:23:24;25.30;44.70
23618;DHT22;18207;32.078;34.818;2022-12-07T16:25:54;25.30;44.70
23618;DHT22;18207;32.078;34.818;2022-12-07T16:28:32;25.20;44.60
23618;DHT22;18207;32.078;34.818;2022-12-07T16:31:04;25.20;44.60
23618;DHT22;18207;32.078;34.818;2022-12-07T16:33:40;25.30;44.70